sensor_id;sensor_type;location;lat;lon;timestamp;P1;durP1;ratioP1;P2;durP2;ratioP2
6149;SDS011;3106;42.670;23.318;2023-01-29T00:01:13;23.33;;;10.83;;
6149;SDS011;3106;42.670;23.318;2023-01-29T00:03:44;22.93;;;10.83;;
6149;SDS011;3106;42.670;23.318;2023-01-29T00:06:11;23.57;;;10.37;;
6149;SDS011;3106;42.670;23.318;2023-01-29T00:08:45;25.90;;;12.40;;
6149;SDS011;3106;42.670;23.318;2023-01-29T00:11:13;22.07;;;10.30;;
6149;SDS011;3106;42.670;23.318;2023-01-29T00:19:00;26.73;;;10.27;;
6149;SDS011;3106;42.670;23.318;2023-01-29T00:21:27;17.73;;;8.27;;
6149;SDS011;3106;42.670;23.318;2023-01-29T00:23:58;21.13;;;10.43;;
6149;SDS011;3106;42.670;23.318;2023-01-29T00:26:27;25.60;;;10.60;;
6149;SDS011;3106;42.670;23.318;2023-01-29T00:28:54;24.33;;;8.67;;
6149;SDS011;3106;42.670;23.318;2023-01-29T00:31:24;21.57;;;9.90;;
6149;SDS011;3106;42.670;23.318;2023-01-29T00:33:51;17.17;;;8.77;;
6149;SDS011;3106;42.670;23.318;2023-01-29T00:36:19;23.57;;;10.37;;
6149;SDS011;3106;42.670;23.318;2023-01-29T00:38:47;23.47;;;8.40;;
6149;SDS011;3106;42.670;23.318;2023-01-29T00:41:24;19.90;;;9.10;;
6149;SDS011;3106;42.670;23.318;2023-01-29T00:44:09;23.85;;;9.52;;
6149;SDS011;3106;42.670;23.318;2023-01-29T00:46:58;17.37;;;8.53;;
6149;SDS011;3106;42.670;23.318;2023-01-29T00:49:27;12.03;;;6.20;;
6149;SDS011;3106;42.670;23.318;2023-01-29T00:51:55;13.73;;;7.80;;
6149;SDS011;3106;42.670;23.318;2023-01-29T00:54:39;21.70;;;9.63;;
6149;SDS011;3106;42.670;23.318;2023-01-29T00:57:07;21.47;;;9.40;;
6149;SDS011;3106;42.670;23.318;2023-01-29T00:59:34;25.10;;;10.80;;
6149;SDS011;3106;42.670;23.318;2023-01-29T01:02:04;19.37;;;8.67;;
6149;SDS011;3106;42.670;23.318;2023-01-29T01:04:48;18.90;;;8.80;;
6149;SDS011;3106;42.670;23.318;2023-01-29T01:07:18;15.27;;;8.30;;
6149;SDS011;3106;42.670;23.318;2023-01-29T01:09:46;20.03;;;9.30;;
6149;SDS011;3106;42.670;23.318;2023-01-29T01:12:31;27.13;;;10.90;;
6149;SDS011;3106;42.670;23.318;2023-01-29T01:15:00;18.63;;;9.17;;
6149;SDS011;3106;42.670;23.318;2023-01-29T01:17:26;27.00;;;11.07;;
6149;SDS011;3106;42.670;23.318;2023-01-29T01:19:53;21.50;;;10.67;;
6149;SDS011;3106;42.670;23.318;2023-01-29T01:22:20;24.17;;;11.57;;
6149;SDS011;3106;42.670;23.318;2023-01-29T01:24:50;22.13;;;9.20;;
6149;SDS011;3106;42.670;23.318;2023-01-29T01:27:17;22.10;;;10.18;;
6149;SDS011;3106;42.670;23.318;2023-01-29T01:29:45;29.63;;;11.90;;
6149;SDS011;3106;42.670;23.318;2023-01-29T01:32:12;22.87;;;10.23;;
6149;SDS011;3106;42.670;23.318;2023-01-29T01:34:40;28.40;;;12.10;;
6149;SDS011;3106;42.670;23.318;2023-01-29T01:37:09;20.33;;;10.47;;
6149;SDS011;3106;42.670;23.318;2023-01-29T01:39:36;22.90;;;10.18;;
6149;SDS011;3106;42.670;23.318;2023-01-29T01:42:04;18.57;;;8.70;;
6149;SDS011;3106;42.670;23.318;2023-01-29T01:44:54;20.70;;;9.20;;
6149;SDS011;3106;42.670;23.318;2023-01-29T01:47:33;19.80;;;8.87;;
6149;SDS011;3106;42.670;23.318;2023-01-29T01:50:04;16.67;;;8.77;;
6149;SDS011;3106;42.670;23.318;2023-01-29T01:52:35;26.10;;;10.63;;
6149;SDS011;3106;42.670;23.318;2023-01-29T01:55:05;18.05;;;9.45;;
6149;SDS011;3106;42.670;23.318;2023-01-29T01:57:34;16.87;;;8.83;;
6149;SDS011;3106;42.670;23.318;2023-01-29T02:00:04;19.87;;;9.10;;
6149;SDS011;3106;42.670;23.318;2023-01-29T02:02:36;15.18;;;7.63;;
6149;SDS011;3106;42.670;23.318;2023-01-29T02:05:22;19.33;;;8.50;;
6149;SDS011;3106;42.670;23.318;2023-01-29T02:08:07;24.00;;;10.32;;
6149;SDS011;3106;42.670;23.318;2023-01-29T02:10:56;21.93;;;9.23;;
6149;SDS011;3106;42.670;23.318;2023-01-29T02:13:29;21.83;;;10.10;;
6149;SDS011;3106;42.670;23.318;2023-01-29T02:15:57;24.07;;;8.80;;
6149;SDS011;3106;42.670;23.318;2023-01-29T02:18:24;17.90;;;9.37;;
6149;SDS011;3106;42.670;23.318;2023-01-29T02:20:57;21.53;;;10.03;;
6149;SDS011;3106;42.670;23.318;2023-01-29T02:23:47;16.33;;;8.43;;
6149;SDS011;3106;42.670;23.318;2023-01-29T02:26:38;19.80;;;8.68;;
6149;SDS011;3106;42.670;23.318;2023-01-29T02:29:17;19.70;;;9.17;;
6149;SDS011;3106;42.670;23.318;2023-01-29T02:32:00;20.63;;;10.33;;
6149;SDS011;3106;42.670;23.318;2023-01-29T02:34:40;22.27;;;10.43;;
6149;SDS011;3106;42.670;23.318;2023-01-29T02:37:31;19.53;;;9.57;;
6149;SDS011;3106;42.670;23.318;2023-01-29T02:40:04;23.87;;;10.67;;
6149;SDS011;3106;42.670;23.318;2023-01-29T02:42:39;17.90;;;8.20;;
6149;SDS011;3106;42.670;23.318;2023-01-29T02:45:14;20.80;;;10.20;;
6149;SDS011;3106;42.670;23.318;2023-01-29T02:47:45;21.27;;;10.10;;
6149;SDS011;3106;42.670;23.318;2023-01-29T02:50:16;20.93;;;10.17;;
6149;SDS011;3106;42.670;23.318;2023-01-29T02:52:49;21.33;;;9.57;;
6149;SDS011;3106;42.670;23.318;2023-01-29T02:55:24;22.20;;;10.13;;
6149;SDS011;3106;42.670;23.318;2023-01-29T02:57:57;22.63;;;10.10;;
6149;SDS011;3106;42.670;23.318;2023-01-29T03:00:31;20.97;;;9.57;;
6149;SDS011;3106;42.670;23.318;2023-01-29T03:03:05;21.83;;;10.90;;
6149;SDS011;3106;42.670;23.318;2023-01-29T03:05:39;18.03;;;9.20;;
6149;SDS011;3106;42.670;23.318;2023-01-29T03:08:19;17.70;;;9.00;;
6149;SDS011;3106;42.670;23.318;2023-01-29T03:11:01;20.07;;;9.30;;
6149;SDS011;3106;42.670;23.318;2023-01-29T03:13:31;17.77;;;9.07;;
6149;SDS011;3106;42.670;23.318;2023-01-29T03:16:08;18.00;;;9.20;;
6149;SDS011;3106;42.670;23.318;2023-01-29T03:18:45;19.30;;;9.23;;
6149;SDS011;3106;42.670;23.318;2023-01-29T03:21:18;18.53;;;9.10;;
6149;SDS011;3106;42.670;23.318;2023-01-29T03:24:05;15.23;;;9.00;;
6149;SDS011;3106;42.670;23.318;2023-01-29T03:26:53;16.83;;;9.10;;
6149;SDS011;3106;42.670;23.318;2023-01-29T03:29:39;15.15;;;8.02;;
6149;SDS011;3106;42.670;23.318;2023-01-29T03:32:26;19.67;;;8.40;;
6149;SDS011;3106;42.670;23.318;2023-01-29T03:34:56;13.93;;;7.73;;
6149;SDS011;3106;42.670;23.318;2023-01-29T03:37:28;13.17;;;7.57;;
6149;SDS011;3106;42.670;23.318;2023-01-29T03:40:00;13.37;;;7.23;;
6149;SDS011;3106;42.670;23.318;2023-01-29T03:42:29;14.80;;;7.83;;
6149;SDS011;3106;42.670;23.318;2023-01-29T03:45:04;15.37;;;7.07;;
6149;SDS011;3106;42.670;23.318;2023-01-29T03:47:41;16.45;;;7.85;;
6149;SDS011;3106;42.670;23.318;2023-01-29T03:50:12;15.95;;;7.65;;
6149;SDS011;3106;42.670;23.318;2023-01-29T03:52:50;20.10;;;8.70;;
6149;SDS011;3106;42.670;23.318;2023-01-29T03:55:27;16.50;;;8.37;;
6149;SDS011;3106;42.670;23.318;2023-01-29T03:58:03;16.47;;;7.87;;
6149;SDS011;3106;42.670;23.318;2023-01-29T04:00:36;21.23;;;7.97;;
6149;SDS011;3106;42.670;23.318;2023-01-29T04:03:08;17.90;;;8.37;;
6149;SDS011;3106;42.670;23.318;2023-01-29T04:05:42;15.53;;;8.17;;
6149;SDS011;3106;42.670;23.318;2023-01-29T04:08:13;15.90;;;8.00;;
6149;SDS011;3106;42.670;23.318;2023-01-29T04:10:48;14.17;;;7.23;;
6149;SDS011;3106;42.670;23.318;2023-01-29T04:13:17;14.90;;;7.37;;
6149;SDS011;3106;42.670;23.318;2023-01-29T04:15:46;13.33;;;7.00;;
6149;SDS011;3106;42.670;23.318;2023-01-29T04:18:20;13.73;;;7.03;;
6149;SDS011;3106;42.670;23.318;2023-01-29T04:20:52;12.50;;;6.70;;
6149;SDS011;3106;42.670;23.318;2023-01-29T04:23:19;12.87;;;6.63;;
6149;SDS011;3106;42.670;23.318;2023-01-29T04:25:51;12.43;;;6.90;;
6149;SDS011;3106;42.670;23.318;2023-01-29T04:28:25;14.03;;;6.70;;
6149;SDS011;3106;42.670;23.318;2023-01-29T04:31:01;12.17;;;7.57;;
6149;SDS011;3106;42.670;23.318;2023-01-29T04:33:37;15.23;;;7.03;;
6149;SDS011;3106;42.670;23.318;2023-01-29T04:36:15;14.90;;;6.45;;
6149;SDS011;3106;42.670;23.318;2023-01-29T04:38:54;12.50;;;6.70;;
6149;SDS011;3106;42.670;23.318;2023-01-29T04:41:29;12.73;;;7.20;;
6149;SDS011;3106;42.670;23.318;2023-01-29T04:44:02;14.35;;;7.80;;
6149;SDS011;3106;42.670;23.318;2023-01-29T04:46:40;15.60;;;7.10;;
6149;SDS011;3106;42.670;23.318;2023-01-29T04:49:18;13.77;;;7.30;;
6149;SDS011;3106;42.670;23.318;2023-01-29T04:51:57;13.50;;;7.40;;
6149;SDS011;3106;42.670;23.318;2023-01-29T04:54:33;12.90;;;6.70;;
6149;SDS011;3106;42.670;23.318;2023-01-29T04:57:12;12.77;;;6.97;;
6149;SDS011;3106;42.670;23.318;2023-01-29T04:59:44;10.73;;;6.40;;
6149;SDS011;3106;42.670;23.318;2023-01-29T05:02:14;13.55;;;6.68;;
6149;SDS011;3106;42.670;23.318;2023-01-29T05:04:42;12.90;;;6.00;;
6149;SDS011;3106;42.670;23.318;2023-01-29T05:07:12;11.43;;;6.55;;
6149;SDS011;3106;42.670;23.318;2023-01-29T05:09:42;12.77;;;6.37;;
6149;SDS011;3106;42.670;23.318;2023-01-29T05:12:14;11.07;;;6.05;;
6149;SDS011;3106;42.670;23.318;2023-01-29T05:14:43;13.67;;;6.73;;
6149;SDS011;3106;42.670;23.318;2023-01-29T05:17:13;13.47;;;6.93;;
6149;SDS011;3106;42.670;23.318;2023-01-29T05:19:45;10.77;;;6.27;;
6149;SDS011;3106;42.670;23.318;2023-01-29T05:22:14;12.85;;;6.88;;
6149;SDS011;3106;42.670;23.318;2023-01-29T05:24:42;11.40;;;5.90;;
6149;SDS011;3106;42.670;23.318;2023-01-29T05:27:11;14.05;;;7.00;;
6149;SDS011;3106;42.670;23.318;2023-01-29T05:30:01;15.50;;;6.53;;
6149;SDS011;3106;42.670;23.318;2023-01-29T05:32:28;11.70;;;6.50;;
6149;SDS011;3106;42.670;23.318;2023-01-29T05:34:56;12.70;;;6.93;;
6149;SDS011;3106;42.670;23.318;2023-01-29T05:37:23;13.03;;;7.10;;
6149;SDS011;3106;42.670;23.318;2023-01-29T05:39:50;11.87;;;5.83;;
6149;SDS011;3106;42.670;23.318;2023-01-29T05:42:17;11.90;;;6.20;;
6149;SDS011;3106;42.670;23.318;2023-01-29T05:44:44;14.37;;;7.10;;
6149;SDS011;3106;42.670;23.318;2023-01-29T05:47:10;15.23;;;6.60;;
6149;SDS011;3106;42.670;23.318;2023-01-29T05:49:37;12.57;;;6.77;;
6149;SDS011;3106;42.670;23.318;2023-01-29T05:52:05;13.33;;;6.40;;
6149;SDS011;3106;42.670;23.318;2023-01-29T05:54:35;11.63;;;7.10;;
6149;SDS011;3106;42.670;23.318;2023-01-29T05:57:02;12.43;;;7.00;;
6149;SDS011;3106;42.670;23.318;2023-01-29T06:02:02;11.67;;;7.03;;
6149;SDS011;3106;42.670;23.318;2023-01-29T06:04:29;12.80;;;6.97;;
6149;SDS011;3106;42.670;23.318;2023-01-29T06:06:56;13.17;;;7.40;;
6149;SDS011;3106;42.670;23.318;2023-01-29T06:09:24;12.50;;;7.57;;
6149;SDS011;3106;42.670;23.318;2023-01-29T06:11:51;14.33;;;7.70;;
6149;SDS011;3106;42.670;23.318;2023-01-29T06:14:18;14.60;;;7.30;;
6149;SDS011;3106;42.670;23.318;2023-01-29T06:16:44;14.47;;;7.60;;
6149;SDS011;3106;42.670;23.318;2023-01-29T06:19:11;11.73;;;6.23;;
6149;SDS011;3106;42.670;23.318;2023-01-29T06:21:38;17.50;;;6.93;;
6149;SDS011;3106;42.670;23.318;2023-01-29T06:24:05;14.93;;;7.53;;
6149;SDS011;3106;42.670;23.318;2023-01-29T06:26:33;17.57;;;7.83;;
6149;SDS011;3106;42.670;23.318;2023-01-29T06:29:00;13.82;;;7.57;;
6149;SDS011;3106;42.670;23.318;2023-01-29T06:31:27;11.10;;;5.50;;
6149;SDS011;3106;42.670;23.318;2023-01-29T06:33:54;17.77;;;8.03;;
6149;SDS011;3106;42.670;23.318;2023-01-29T06:36:21;18.60;;;7.57;;
6149;SDS011;3106;42.670;23.318;2023-01-29T06:38:51;13.67;;;8.07;;
6149;SDS011;3106;42.670;23.318;2023-01-29T06:41:18;15.38;;;8.30;;
6149;SDS011;3106;42.670;23.318;2023-01-29T06:43:50;16.30;;;7.93;;
6149;SDS011;3106;42.670;23.318;2023-01-29T06:46:17;16.27;;;7.83;;
6149;SDS011;3106;42.670;23.318;2023-01-29T06:48:44;15.32;;;8.23;;
6149;SDS011;3106;42.670;23.318;2023-01-29T06:51:11;18.53;;;8.60;;
6149;SDS011;3106;42.670;23.318;2023-01-29T06:53:38;17.43;;;8.90;;
6149;SDS011;3106;42.670;23.318;2023-01-29T06:56:05;14.27;;;7.97;;
6149;SDS011;3106;42.670;23.318;2023-01-29T06:58:34;14.97;;;8.10;;
6149;SDS011;3106;42.670;23.318;2023-01-29T07:01:04;15.53;;;8.60;;
6149;SDS011;3106;42.670;23.318;2023-01-29T07:03:32;17.87;;;9.60;;
6149;SDS011;3106;42.670;23.318;2023-01-29T07:05:59;16.83;;;8.50;;
6149;SDS011;3106;42.670;23.318;2023-01-29T07:08:26;19.23;;;9.00;;
6149;SDS011;3106;42.670;23.318;2023-01-29T07:10:57;19.33;;;9.80;;
6149;SDS011;3106;42.670;23.318;2023-01-29T07:13:25;23.00;;;10.00;;
6149;SDS011;3106;42.670;23.318;2023-01-29T07:15:52;19.37;;;9.20;;
6149;SDS011;3106;42.670;23.318;2023-01-29T07:18:20;16.60;;;9.40;;
6149;SDS011;3106;42.670;23.318;2023-01-29T07:20:47;21.30;;;9.33;;
6149;SDS011;3106;42.670;23.318;2023-01-29T07:23:13;17.80;;;9.20;;
6149;SDS011;3106;42.670;23.318;2023-01-29T07:25:41;19.50;;;8.73;;
6149;SDS011;3106;42.670;23.318;2023-01-29T07:28:08;20.47;;;9.63;;
6149;SDS011;3106;42.670;23.318;2023-01-29T07:30:35;22.00;;;9.75;;
6149;SDS011;3106;42.670;23.318;2023-01-29T07:33:02;19.47;;;9.47;;
6149;SDS011;3106;42.670;23.318;2023-01-29T07:35:30;20.20;;;9.85;;
6149;SDS011;3106;42.670;23.318;2023-01-29T07:37:57;19.80;;;9.43;;
6149;SDS011;3106;42.670;23.318;2023-01-29T07:40:24;20.77;;;10.00;;
6149;SDS011;3106;42.670;23.318;2023-01-29T07:42:55;20.53;;;10.40;;
6149;SDS011;3106;42.670;23.318;2023-01-29T07:45:23;21.33;;;11.20;;
6149;SDS011;3106;42.670;23.318;2023-01-29T07:47:50;19.92;;;10.27;;
6149;SDS011;3106;42.670;23.318;2023-01-29T07:50:18;20.67;;;8.47;;
6149;SDS011;3106;42.670;23.318;2023-01-29T07:52:46;22.10;;;9.45;;
6149;SDS011;3106;42.670;23.318;2023-01-29T07:55:13;19.20;;;9.00;;
6149;SDS011;3106;42.670;23.318;2023-01-29T07:57:40;18.57;;;9.50;;
6149;SDS011;3106;42.670;23.318;2023-01-29T08:00:07;22.30;;;10.57;;
6149;SDS011;3106;42.670;23.318;2023-01-29T08:05:24;17.43;;;9.80;;
6149;SDS011;3106;42.670;23.318;2023-01-29T08:07:52;26.10;;;12.00;;
6149;SDS011;3106;42.670;23.318;2023-01-29T08:10:19;15.65;;;7.65;;
6149;SDS011;3106;42.670;23.318;2023-01-29T08:12:46;20.10;;;10.40;;
6149;SDS011;3106;42.670;23.318;2023-01-29T08:15:13;17.07;;;9.50;;
6149;SDS011;3106;42.670;23.318;2023-01-29T08:17:40;24.73;;;10.83;;
6149;SDS011;3106;42.670;23.318;2023-01-29T08:20:08;22.23;;;10.57;;
6149;SDS011;3106;42.670;23.318;2023-01-29T08:22:36;18.63;;;10.20;;
6149;SDS011;3106;42.670;23.318;2023-01-29T08:25:04;25.13;;;11.87;;
6149;SDS011;3106;42.670;23.318;2023-01-29T08:27:31;20.63;;;10.27;;
6149;SDS011;3106;42.670;23.318;2023-01-29T08:29:58;21.70;;;10.70;;
6149;SDS011;3106;42.670;23.318;2023-01-29T08:32:25;17.57;;;9.60;;
6149;SDS011;3106;42.670;23.318;2023-01-29T08:34:51;19.70;;;10.27;;
6149;SDS011;3106;42.670;23.318;2023-01-29T08:37:20;18.73;;;10.10;;
6149;SDS011;3106;42.670;23.318;2023-01-29T08:39:47;20.83;;;9.30;;
6149;SDS011;3106;42.670;23.318;2023-01-29T08:42:15;18.40;;;9.90;;
6149;SDS011;3106;42.670;23.318;2023-01-29T08:47:15;18.70;;;9.97;;
6149;SDS011;3106;42.670;23.318;2023-01-29T08:49:42;18.43;;;8.20;;
6149;SDS011;3106;42.670;23.318;2023-01-29T08:52:08;17.70;;;9.00;;
6149;SDS011;3106;42.670;23.318;2023-01-29T08:54:35;25.70;;;11.20;;
6149;SDS011;3106;42.670;23.318;2023-01-29T08:57:02;27.77;;;12.80;;
6149;SDS011;3106;42.670;23.318;2023-01-29T08:59:30;34.60;;;17.60;;
6149;SDS011;3106;42.670;23.318;2023-01-29T09:01:57;25.40;;;12.70;;
6149;SDS011;3106;42.670;23.318;2023-01-29T09:04:24;25.97;;;11.67;;
6149;SDS011;3106;42.670;23.318;2023-01-29T09:06:51;24.87;;;11.60;;
6149;SDS011;3106;42.670;23.318;2023-01-29T09:09:17;23.23;;;10.27;;
6149;SDS011;3106;42.670;23.318;2023-01-29T09:11:44;22.90;;;11.07;;
6149;SDS011;3106;42.670;23.318;2023-01-29T09:14:11;23.57;;;11.50;;
6149;SDS011;3106;42.670;23.318;2023-01-29T09:16:40;22.00;;;11.53;;
6149;SDS011;3106;42.670;23.318;2023-01-29T09:19:09;23.07;;;11.23;;
6149;SDS011;3106;42.670;23.318;2023-01-29T09:21:36;25.83;;;12.30;;
6149;SDS011;3106;42.670;23.318;2023-01-29T09:24:04;32.00;;;13.40;;
6149;SDS011;3106;42.670;23.318;2023-01-29T09:26:31;23.73;;;11.63;;
6149;SDS011;3106;42.670;23.318;2023-01-29T09:28:58;24.70;;;12.03;;
6149;SDS011;3106;42.670;23.318;2023-01-29T09:31:25;22.63;;;11.17;;
6149;SDS011;3106;42.670;23.318;2023-01-29T09:33:53;33.20;;;16.37;;
6149;SDS011;3106;42.670;23.318;2023-01-29T09:36:20;23.57;;;11.70;;
6149;SDS011;3106;42.670;23.318;2023-01-29T09:38:47;26.10;;;12.03;;
6149;SDS011;3106;42.670;23.318;2023-01-29T09:41:17;23.20;;;12.20;;
6149;SDS011;3106;42.670;23.318;2023-01-29T09:43:58;22.80;;;12.03;;
6149;SDS011;3106;42.670;23.318;2023-01-29T09:46:29;25.00;;;11.80;;
6149;SDS011;3106;42.670;23.318;2023-01-29T09:49:03;23.20;;;11.13;;
6149;SDS011;3106;42.670;23.318;2023-01-29T09:51:36;25.73;;;11.90;;
6149;SDS011;3106;42.670;23.318;2023-01-29T09:54:11;23.03;;;10.53;;
6149;SDS011;3106;42.670;23.318;2023-01-29T09:56:41;25.80;;;11.87;;
6149;SDS011;3106;42.670;23.318;2023-01-29T09:59:11;27.50;;;10.63;;
6149;SDS011;3106;42.670;23.318;2023-01-29T10:01:40;23.33;;;10.93;;
6149;SDS011;3106;42.670;23.318;2023-01-29T10:04:25;25.23;;;10.97;;
6149;SDS011;3106;42.670;23.318;2023-01-29T10:07:19;20.20;;;10.07;;
6149;SDS011;3106;42.670;23.318;2023-01-29T10:10:09;25.07;;;12.23;;
6149;SDS011;3106;42.670;23.318;2023-01-29T10:12:48;22.63;;;10.53;;
6149;SDS011;3106;42.670;23.318;2023-01-29T10:15:27;20.60;;;11.40;;
6149;SDS011;3106;42.670;23.318;2023-01-29T10:18:25;23.35;;;11.15;;
6149;SDS011;3106;42.670;23.318;2023-01-29T10:21:12;29.33;;;12.60;;
6149;SDS011;3106;42.670;23.318;2023-01-29T10:23:51;29.63;;;11.40;;
6149;SDS011;3106;42.670;23.318;2023-01-29T10:26:22;27.70;;;12.47;;
6149;SDS011;3106;42.670;23.318;2023-01-29T10:28:53;25.27;;;12.40;;
6149;SDS011;3106;42.670;23.318;2023-01-29T10:31:23;19.90;;;9.60;;
6149;SDS011;3106;42.670;23.318;2023-01-29T10:33:57;24.37;;;11.77;;
6149;SDS011;3106;42.670;23.318;2023-01-29T10:36:31;25.33;;;11.90;;
6149;SDS011;3106;42.670;23.318;2023-01-29T10:39:02;23.20;;;10.27;;
6149;SDS011;3106;42.670;23.318;2023-01-29T10:41:40;25.47;;;10.70;;
6149;SDS011;3106;42.670;23.318;2023-01-29T10:46:46;25.30;;;11.30;;
6149;SDS011;3106;42.670;23.318;2023-01-29T10:49:27;30.20;;;12.80;;
6149;SDS011;3106;42.670;23.318;2023-01-29T10:52:17;24.83;;;11.33;;
6149;SDS011;3106;42.670;23.318;2023-01-29T10:54:58;27.30;;;12.70;;
6149;SDS011;3106;42.670;23.318;2023-01-29T10:57:39;28.27;;;12.10;;
6149;SDS011;3106;42.670;23.318;2023-01-29T11:00:16;28.10;;;13.20;;
6149;SDS011;3106;42.670;23.318;2023-01-29T11:02:48;33.67;;;14.73;;
6149;SDS011;3106;42.670;23.318;2023-01-29T11:05:22;38.33;;;16.63;;
6149;SDS011;3106;42.670;23.318;2023-01-29T11:07:57;30.67;;;13.17;;
6149;SDS011;3106;42.670;23.318;2023-01-29T11:10:29;32.93;;;14.37;;
6149;SDS011;3106;42.670;23.318;2023-01-29T11:12:58;35.03;;;15.17;;
6149;SDS011;3106;42.670;23.318;2023-01-29T11:15:28;41.47;;;16.90;;
6149;SDS011;3106;42.670;23.318;2023-01-29T11:18:02;34.13;;;15.47;;
6149;SDS011;3106;42.670;23.318;2023-01-29T11:20:31;27.50;;;11.97;;
6149;SDS011;3106;42.670;23.318;2023-01-29T11:23:00;36.77;;;14.47;;
6149;SDS011;3106;42.670;23.318;2023-01-29T11:25:27;30.27;;;12.63;;
6149;SDS011;3106;42.670;23.318;2023-01-29T11:27:57;27.80;;;12.70;;
6149;SDS011;3106;42.670;23.318;2023-01-29T11:30:26;32.47;;;14.37;;
6149;SDS011;3106;42.670;23.318;2023-01-29T11:32:57;34.83;;;14.70;;
6149;SDS011;3106;42.670;23.318;2023-01-29T11:35:32;30.63;;;14.10;;
6149;SDS011;3106;42.670;23.318;2023-01-29T11:38:06;34.27;;;14.53;;
6149;SDS011;3106;42.670;23.318;2023-01-29T11:40:42;31.20;;;14.10;;
6149;SDS011;3106;42.670;23.318;2023-01-29T11:43:11;32.70;;;13.33;;
6149;SDS011;3106;42.670;23.318;2023-01-29T11:45:39;27.20;;;11.83;;
6149;SDS011;3106;42.670;23.318;2023-01-29T11:48:10;30.17;;;13.90;;
6149;SDS011;3106;42.670;23.318;2023-01-29T11:50:41;19.93;;;10.40;;
6149;SDS011;3106;42.670;23.318;2023-01-29T11:53:25;30.97;;;13.53;;
6149;SDS011;3106;42.670;23.318;2023-01-29T11:56:02;33.23;;;13.80;;
6149;SDS011;3106;42.670;23.318;2023-01-29T11:58:39;31.10;;;12.87;;
6149;SDS011;3106;42.670;23.318;2023-01-29T12:01:07;36.10;;;14.37;;
6149;SDS011;3106;42.670;23.318;2023-01-29T12:03:38;31.70;;;14.40;;
6149;SDS011;3106;42.670;23.318;2023-01-29T12:06:12;30.03;;;12.87;;
6149;SDS011;3106;42.670;23.318;2023-01-29T12:08:51;29.80;;;13.10;;
6149;SDS011;3106;42.670;23.318;2023-01-29T12:11:23;29.40;;;13.43;;
6149;SDS011;3106;42.670;23.318;2023-01-29T12:13:53;30.00;;;12.40;;
6149;SDS011;3106;42.670;23.318;2023-01-29T12:16:22;28.37;;;12.23;;
6149;SDS011;3106;42.670;23.318;2023-01-29T12:18:54;37.27;;;15.17;;
6149;SDS011;3106;42.670;23.318;2023-01-29T12:21:27;33.07;;;14.90;;
6149;SDS011;3106;42.670;23.318;2023-01-29T12:24:02;28.73;;;12.23;;
6149;SDS011;3106;42.670;23.318;2023-01-29T12:26:38;32.20;;;14.67;;
6149;SDS011;3106;42.670;23.318;2023-01-29T12:29:12;33.43;;;14.40;;
6149;SDS011;3106;42.670;23.318;2023-01-29T12:31:50;29.67;;;14.40;;
6149;SDS011;3106;42.670;23.318;2023-01-29T12:34:29;28.50;;;13.00;;
6149;SDS011;3106;42.670;23.318;2023-01-29T12:37:08;34.53;;;14.40;;
6149;SDS011;3106;42.670;23.318;2023-01-29T12:39:43;24.13;;;11.60;;
6149;SDS011;3106;42.670;23.318;2023-01-29T12:42:12;39.60;;;15.60;;
6149;SDS011;3106;42.670;23.318;2023-01-29T12:44:45;30.73;;;13.93;;
6149;SDS011;3106;42.670;23.318;2023-01-29T12:47:17;31.10;;;13.53;;
6149;SDS011;3106;42.670;23.318;2023-01-29T12:49:49;30.50;;;14.53;;
6149;SDS011;3106;42.670;23.318;2023-01-29T12:52:20;34.90;;;15.30;;
6149;SDS011;3106;42.670;23.318;2023-01-29T12:54:57;31.07;;;14.50;;
6149;SDS011;3106;42.670;23.318;2023-01-29T12:57:28;30.70;;;13.17;;
6149;SDS011;3106;42.670;23.318;2023-01-29T13:00:04;28.00;;;12.83;;
6149;SDS011;3106;42.670;23.318;2023-01-29T13:02:42;32.70;;;12.57;;
6149;SDS011;3106;42.670;23.318;2023-01-29T13:05:17;29.13;;;12.07;;
6149;SDS011;3106;42.670;23.318;2023-01-29T13:07:50;29.52;;;12.52;;
6149;SDS011;3106;42.670;23.318;2023-01-29T13:10:24;29.07;;;12.60;;
6149;SDS011;3106;42.670;23.318;2023-01-29T13:12:59;31.20;;;13.60;;
6149;SDS011;3106;42.670;23.318;2023-01-29T13:15:31;33.90;;;14.03;;
6149;SDS011;3106;42.670;23.318;2023-01-29T13:18:06;30.37;;;13.20;;
6149;SDS011;3106;42.670;23.318;2023-01-29T13:20:47;30.97;;;14.13;;
6149;SDS011;3106;42.670;23.318;2023-01-29T13:23:17;33.50;;;15.27;;
6149;SDS011;3106;42.670;23.318;2023-01-29T13:25:52;27.80;;;12.80;;
6149;SDS011;3106;42.670;23.318;2023-01-29T13:28:20;35.43;;;16.70;;
6149;SDS011;3106;42.670;23.318;2023-01-29T13:33:52;40.63;;;15.03;;
6149;SDS011;3106;42.670;23.318;2023-01-29T13:36:25;35.83;;;15.20;;
6149;SDS011;3106;42.670;23.318;2023-01-29T13:38:57;42.50;;;17.67;;
6149;SDS011;3106;42.670;23.318;2023-01-29T13:41:36;33.70;;;13.43;;
6149;SDS011;3106;42.670;23.318;2023-01-29T13:44:06;37.73;;;15.07;;
6149;SDS011;3106;42.670;23.318;2023-01-29T13:46:46;33.70;;;14.40;;
6149;SDS011;3106;42.670;23.318;2023-01-29T13:49:26;32.40;;;13.60;;
6149;SDS011;3106;42.670;23.318;2023-01-29T13:52:01;27.37;;;12.43;;
6149;SDS011;3106;42.670;23.318;2023-01-29T13:54:47;17.80;;;8.70;;
6149;SDS011;3106;42.670;23.318;2023-01-29T14:15:28;22.43;;;9.50;;
6149;SDS011;3106;42.670;23.318;2023-01-29T14:23:29;33.50;;;14.50;;
6149;SDS011;3106;42.670;23.318;2023-01-29T14:26:01;29.20;;;12.27;;
6149;SDS011;3106;42.670;23.318;2023-01-29T14:28:31;31.70;;;14.20;;
6149;SDS011;3106;42.670;23.318;2023-01-29T14:30:59;25.57;;;12.63;;
6149;SDS011;3106;42.670;23.318;2023-01-29T14:33:31;25.98;;;12.52;;
6149;SDS011;3106;42.670;23.318;2023-01-29T14:36:04;29.47;;;12.10;;
6149;SDS011;3106;42.670;23.318;2023-01-29T14:38:34;37.63;;;15.97;;
6149;SDS011;3106;42.670;23.318;2023-01-29T14:41:03;39.73;;;18.07;;
6149;SDS011;3106;42.670;23.318;2023-01-29T14:43:41;30.53;;;13.70;;
6149;SDS011;3106;42.670;23.318;2023-01-29T14:49:12;43.60;;;16.90;;
6149;SDS011;3106;42.670;23.318;2023-01-29T14:52:16;38.63;;;16.70;;
6149;SDS011;3106;42.670;23.318;2023-01-29T14:54:46;41.60;;;18.53;;
6149;SDS011;3106;42.670;23.318;2023-01-29T14:57:14;44.88;;;17.42;;
6149;SDS011;3106;42.670;23.318;2023-01-29T14:59:45;41.73;;;17.60;;
6149;SDS011;3106;42.670;23.318;2023-01-29T15:02:19;50.43;;;19.30;;
6149;SDS011;3106;42.670;23.318;2023-01-29T15:04:51;41.70;;;18.57;;
6149;SDS011;3106;42.670;23.318;2023-01-29T15:07:28;40.50;;;16.80;;
6149;SDS011;3106;42.670;23.318;2023-01-29T15:10:02;42.03;;;17.40;;
6149;SDS011;3106;42.670;23.318;2023-01-29T15:12:33;75.07;;;28.23;;
6149;SDS011;3106;42.670;23.318;2023-01-29T15:15:07;49.80;;;19.95;;
6149;SDS011;3106;42.670;23.318;2023-01-29T15:17:45;40.67;;;17.10;;
6149;SDS011;3106;42.670;23.318;2023-01-29T15:20:26;42.93;;;18.63;;
6149;SDS011;3106;42.670;23.318;2023-01-29T15:22:57;42.70;;;17.80;;
6149;SDS011;3106;42.670;23.318;2023-01-29T15:25:24;52.53;;;21.20;;
6149;SDS011;3106;42.670;23.318;2023-01-29T15:27:57;40.20;;;17.60;;
6149;SDS011;3106;42.670;23.318;2023-01-29T15:30:28;44.40;;;18.40;;
6149;SDS011;3106;42.670;23.318;2023-01-29T15:32:59;49.50;;;18.37;;
6149;SDS011;3106;42.670;23.318;2023-01-29T15:35:27;43.33;;;19.90;;
6149;SDS011;3106;42.670;23.318;2023-01-29T15:38:01;46.80;;;19.10;;
6149;SDS011;3106;42.670;23.318;2023-01-29T15:40:33;44.67;;;17.60;;
6149;SDS011;3106;42.670;23.318;2023-01-29T15:43:00;35.67;;;15.57;;
6149;SDS011;3106;42.670;23.318;2023-01-29T15:45:28;46.40;;;19.65;;
6149;SDS011;3106;42.670;23.318;2023-01-29T15:48:00;43.40;;;16.48;;
6149;SDS011;3106;42.670;23.318;2023-01-29T15:50:32;48.77;;;19.87;;
6149;SDS011;3106;42.670;23.318;2023-01-29T15:53:05;43.93;;;18.57;;
6149;SDS011;3106;42.670;23.318;2023-01-29T15:55:34;54.07;;;20.93;;